sensor_id;sensor_type;location;lat;lon;timestamp;P1;durP1;ratioP1;P2;durP2;ratioP2
57441;SDS011;43284;47.042;15.498;2022-10-23T00:01:32;122.25;;;16.30;;
57441;SDS011;43284;47.042;15.498;2022-10-23T00:04:02;162.43;;;14.57;;
57441;SDS011;43284;47.042;15.498;2022-10-23T00:06:32;65.55;;;12.55;;
57441;SDS011;43284;47.042;15.498;2022-10-23T00:09:01;135.27;;;18.40;;
57441;SDS011;43284;47.042;15.498;2022-10-23T00:11:30;111.85;;;16.15;;
57441;SDS011;43284;47.042;15.498;2022-10-23T00:13:58;147.63;;;17.80;;
57441;SDS011;43284;47.042;15.498;2022-10-23T00:16:27;120.10;;;16.00;;
57441;SDS011;43284;47.042;15.498;2022-10-23T00:18:55;91.60;;;14.25;;
57441;SDS011;43284;47.042;15.498;2022-10-23T00:21:23;207.90;;;20.90;;
57441;SDS011;43284;47.042;15.498;2022-10-23T00:23:51;128.70;;;16.75;;
57441;SDS011;43284;47.042;15.498;2022-10-23T00:26:19;204.32;;;19.10;;
57441;SDS011;43284;47.042;15.498;2022-10-23T00:28:47;176.00;;;16.63;;
57441;SDS011;43284;47.042;15.498;2022-10-23T00:31:17;51.97;;;13.38;;
57441;SDS011;43284;47.042;15.498;2022-10-23T00:33:44;96.45;;;13.88;;
57441;SDS011;43284;47.042;15.498;2022-10-23T00:36:12;163.07;;;16.42;;
57441;SDS011;43284;47.042;15.498;2022-10-23T00:38:42;70.90;;;13.80;;
57441;SDS011;43284;47.042;15.498;2022-10-23T00:41:12;87.72;;;13.55;;
57441;SDS011;43284;47.042;15.498;2022-10-23T00:46:48;120.40;;;13.25;;
57441;SDS011;43284;47.042;15.498;2022-10-23T00:49:16;48.08;;;10.60;;
57441;SDS011;43284;47.042;15.498;2022-10-23T00:51:49;57.00;;;10.95;;
57441;SDS011;43284;47.042;15.498;2022-10-23T00:54:31;46.70;;;11.00;;
57441;SDS011;43284;47.042;15.498;2022-10-23T00:57:03;68.43;;;10.80;;
57441;SDS011;43284;47.042;15.498;2022-10-23T00:59:33;22.05;;;9.23;;
57441;SDS011;43284;47.042;15.498;2022-10-23T01:02:01;36.30;;;10.57;;
57441;SDS011;43284;47.042;15.498;2022-10-23T01:04:29;15.50;;;8.70;;
57441;SDS011;43284;47.042;15.498;2022-10-23T01:07:00;42.97;;;9.23;;
57441;SDS011;43284;47.042;15.498;2022-10-23T01:12:52;15.80;;;7.70;;
57441;SDS011;43284;47.042;15.498;2022-10-23T01:15:36;22.98;;;8.68;;
57441;SDS011;43284;47.042;15.498;2022-10-23T01:18:24;20.23;;;7.45;;
57441;SDS011;43284;47.042;15.498;2022-10-23T01:31:57;103.78;;;9.63;;
57441;SDS011;43284;47.042;15.498;2022-10-23T01:34:55;44.25;;;7.00;;
57441;SDS011;43284;47.042;15.498;2022-10-23T01:37:31;53.95;;;7.25;;
57441;SDS011;43284;47.042;15.498;2022-10-23T01:40:06;27.10;;;7.13;;
57441;SDS011;43284;47.042;15.498;2022-10-23T01:42:40;31.65;;;7.70;;
57441;SDS011;43284;47.042;15.498;2022-10-23T01:45:22;46.63;;;8.43;;
57441;SDS011;43284;47.042;15.498;2022-10-23T01:47:54;144.88;;;11.98;;
57441;SDS011;43284;47.042;15.498;2022-10-23T01:50:23;188.07;;;13.82;;
57441;SDS011;43284;47.042;15.498;2022-10-23T01:52:52;112.22;;;10.98;;
57441;SDS011;43284;47.042;15.498;2022-10-23T01:55:19;59.33;;;9.65;;
57441;SDS011;43284;47.042;15.498;2022-10-23T01:57:49;67.60;;;11.40;;
57441;SDS011;43284;47.042;15.498;2022-10-23T02:00:20;59.38;;;10.05;;
57441;SDS011;43284;47.042;15.498;2022-10-23T02:02:48;88.68;;;12.82;;
57441;SDS011;43284;47.042;15.498;2022-10-23T02:05:24;150.98;;;13.88;;
57441;SDS011;43284;47.042;15.498;2022-10-23T02:07:53;74.95;;;9.10;;
57441;SDS011;43284;47.042;15.498;2022-10-23T02:10:27;37.30;;;9.27;;
57441;SDS011;43284;47.042;15.498;2022-10-23T02:13:24;63.00;;;9.18;;
57441;SDS011;43284;47.042;15.498;2022-10-23T02:16:09;82.85;;;10.23;;
57441;SDS011;43284;47.042;15.498;2022-10-23T02:18:50;44.50;;;8.48;;
57441;SDS011;43284;47.042;15.498;2022-10-23T02:21:25;42.67;;;8.75;;
57441;SDS011;43284;47.042;15.498;2022-10-23T02:24:06;33.35;;;7.93;;
57441;SDS011;43284;47.042;15.498;2022-10-23T02:26:50;24.33;;;7.15;;
57441;SDS011;43284;47.042;15.498;2022-10-23T02:29:27;12.57;;;6.88;;
57441;SDS011;43284;47.042;15.498;2022-10-23T02:32:05;20.92;;;6.00;;
57441;SDS011;43284;47.042;15.498;2022-10-23T02:34:35;23.75;;;5.68;;
57441;SDS011;43284;47.042;15.498;2022-10-23T02:37:03;19.05;;;6.72;;
57441;SDS011;43284;47.042;15.498;2022-10-23T02:39:30;19.08;;;6.55;;
57441;SDS011;43284;47.042;15.498;2022-10-23T02:42:05;26.52;;;6.72;;
57441;SDS011;43284;47.042;15.498;2022-10-23T02:44:42;33.78;;;7.32;;
57441;SDS011;43284;47.042;15.498;2022-10-23T02:47:19;68.28;;;10.32;;
57441;SDS011;43284;47.042;15.498;2022-10-23T02:52:20;23.80;;;7.30;;
57441;SDS011;43284;47.042;15.498;2022-10-23T03:00:37;130.43;;;10.45;;
57441;SDS011;43284;47.042;15.498;2022-10-23T03:03:10;75.25;;;9.88;;
57441;SDS011;43284;47.042;15.498;2022-10-23T03:05:47;72.72;;;10.48;;
57441;SDS011;43284;47.042;15.498;2022-10-23T03:08:15;54.70;;;9.02;;
57441;SDS011;43284;47.042;15.498;2022-10-23T03:10:42;50.78;;;7.00;;
57441;SDS011;43284;47.042;15.498;2022-10-23T03:13:10;46.90;;;8.02;;
57441;SDS011;43284;47.042;15.498;2022-10-23T03:15:38;81.45;;;7.97;;
57441;SDS011;43284;47.042;15.498;2022-10-23T03:18:05;71.35;;;6.65;;
57441;SDS011;43284;47.042;15.498;2022-10-23T03:20:32;29.08;;;6.25;;
57441;SDS011;43284;47.042;15.498;2022-10-23T03:22:59;25.83;;;6.30;;
57441;SDS011;43284;47.042;15.498;2022-10-23T03:25:27;39.30;;;6.85;;
57441;SDS011;43284;47.042;15.498;2022-10-23T03:27:54;61.75;;;7.75;;
57441;SDS011;43284;47.042;15.498;2022-10-23T03:30:22;51.42;;;7.25;;
57441;SDS011;43284;47.042;15.498;2022-10-23T03:32:50;38.10;;;8.10;;
57441;SDS011;43284;47.042;15.498;2022-10-23T03:35:17;103.57;;;13.30;;
57441;SDS011;43284;47.042;15.498;2022-10-23T03:37:45;55.20;;;10.02;;
57441;SDS011;43284;47.042;15.498;2022-10-23T03:40:12;133.50;;;10.48;;
57441;SDS011;43284;47.042;15.498;2022-10-23T03:42:39;81.75;;;9.25;;
57441;SDS011;43284;47.042;15.498;2022-10-23T03:45:07;91.22;;;10.27;;
57441;SDS011;43284;47.042;15.498;2022-10-23T03:47:34;85.18;;;8.10;;
57441;SDS011;43284;47.042;15.498;2022-10-23T03:50:06;70.53;;;7.25;;
57441;SDS011;43284;47.042;15.498;2022-10-23T03:52:34;74.43;;;6.82;;
57441;SDS011;43284;47.042;15.498;2022-10-23T03:55:02;31.40;;;5.15;;
57441;SDS011;43284;47.042;15.498;2022-10-23T03:57:32;78.75;;;6.03;;
57441;SDS011;43284;47.042;15.498;2022-10-23T03:59:59;65.78;;;5.70;;
57441;SDS011;43284;47.042;15.498;2022-10-23T04:02:27;35.08;;;4.47;;
57441;SDS011;43284;47.042;15.498;2022-10-23T04:04:54;20.52;;;4.10;;
57441;SDS011;43284;47.042;15.498;2022-10-23T04:07:22;25.70;;;3.78;;
57441;SDS011;43284;47.042;15.498;2022-10-23T04:09:49;14.38;;;2.90;;
57441;SDS011;43284;47.042;15.498;2022-10-23T04:12:17;13.50;;;2.97;;
57441;SDS011;43284;47.042;15.498;2022-10-23T04:14:45;11.55;;;3.58;;
57441;SDS011;43284;47.042;15.498;2022-10-23T04:17:13;8.43;;;4.25;;
57441;SDS011;43284;47.042;15.498;2022-10-23T04:19:40;6.85;;;3.30;;
57441;SDS011;43284;47.042;15.498;2022-10-23T04:22:08;20.27;;;3.15;;
57441;SDS011;43284;47.042;15.498;2022-10-23T04:24:36;7.05;;;3.20;;
57441;SDS011;43284;47.042;15.498;2022-10-23T04:27:03;7.68;;;3.28;;
57441;SDS011;43284;47.042;15.498;2022-10-23T04:29:31;6.22;;;3.88;;
57441;SDS011;43284;47.042;15.498;2022-10-23T04:31:58;12.57;;;6.07;;
57441;SDS011;43284;47.042;15.498;2022-10-23T04:34:26;4.80;;;3.60;;
57441;SDS011;43284;47.042;15.498;2022-10-23T04:36:53;5.82;;;2.97;;
57441;SDS011;43284;47.042;15.498;2022-10-23T04:39:21;5.97;;;2.65;;
57441;SDS011;43284;47.042;15.498;2022-10-23T04:41:48;8.85;;;2.92;;
57441;SDS011;43284;47.042;15.498;2022-10-23T04:44:15;11.98;;;2.90;;
57441;SDS011;43284;47.042;15.498;2022-10-23T04:46:44;9.75;;;2.92;;
57441;SDS011;43284;47.042;15.498;2022-10-23T04:49:11;4.95;;;2.83;;
57441;SDS011;43284;47.042;15.498;2022-10-23T04:51:39;11.48;;;2.92;;
57441;SDS011;43284;47.042;15.498;2022-10-23T04:54:06;5.38;;;2.80;;
57441;SDS011;43284;47.042;15.498;2022-10-23T04:56:34;9.40;;;3.35;;
57441;SDS011;43284;47.042;15.498;2022-10-23T04:59:01;11.05;;;2.83;;
57441;SDS011;43284;47.042;15.498;2022-10-23T05:01:29;31.17;;;3.13;;
57441;SDS011;43284;47.042;15.498;2022-10-23T05:03:57;16.52;;;3.00;;
57441;SDS011;43284;47.042;15.498;2022-10-23T05:06:24;62.85;;;4.55;;
57441;SDS011;43284;47.042;15.498;2022-10-23T05:08:52;16.45;;;3.42;;
57441;SDS011;43284;47.042;15.498;2022-10-23T05:11:19;12.75;;;3.97;;
57441;SDS011;43284;47.042;15.498;2022-10-23T05:13:47;29.55;;;4.85;;
57441;SDS011;43284;47.042;15.498;2022-10-23T05:16:26;46.67;;;5.68;;
57441;SDS011;43284;47.042;15.498;2022-10-23T05:19:26;43.67;;;6.28;;
57441;SDS011;43284;47.042;15.498;2022-10-23T05:22:02;37.67;;;5.05;;
57441;SDS011;43284;47.042;15.498;2022-10-23T05:24:32;54.10;;;7.03;;
57441;SDS011;43284;47.042;15.498;2022-10-23T05:27:00;61.17;;;6.32;;
57441;SDS011;43284;47.042;15.498;2022-10-23T05:29:27;19.85;;;5.13;;
57441;SDS011;43284;47.042;15.498;2022-10-23T05:31:56;60.78;;;6.57;;
57441;SDS011;43284;47.042;15.498;2022-10-23T05:34:29;29.20;;;5.43;;
57441;SDS011;43284;47.042;15.498;2022-10-23T05:37:01;18.85;;;4.93;;
57441;SDS011;43284;47.042;15.498;2022-10-23T05:39:32;27.00;;;4.57;;
57441;SDS011;43284;47.042;15.498;2022-10-23T05:42:00;21.90;;;5.00;;
57441;SDS011;43284;47.042;15.498;2022-10-23T05:44:27;21.48;;;4.63;;
57441;SDS011;43284;47.042;15.498;2022-10-23T05:46:54;64.03;;;7.15;;
57441;SDS011;43284;47.042;15.498;2022-10-23T05:49:25;41.42;;;6.75;;
57441;SDS011;43284;47.042;15.498;2022-10-23T05:51:53;29.40;;;6.88;;
57441;SDS011;43284;47.042;15.498;2022-10-23T05:54:21;70.70;;;8.68;;
57441;SDS011;43284;47.042;15.498;2022-10-23T05:56:49;98.40;;;11.05;;
57441;SDS011;43284;47.042;15.498;2022-10-23T05:59:17;43.28;;;7.82;;
57441;SDS011;43284;47.042;15.498;2022-10-23T06:01:45;56.97;;;9.77;;
57441;SDS011;43284;47.042;15.498;2022-10-23T06:04:13;133.55;;;13.05;;
57441;SDS011;43284;47.042;15.498;2022-10-23T06:06:40;83.07;;;10.70;;
57441;SDS011;43284;47.042;15.498;2022-10-23T06:09:08;49.35;;;8.45;;
57441;SDS011;43284;47.042;15.498;2022-10-23T06:11:35;39.15;;;8.75;;
57441;SDS011;43284;47.042;15.498;2022-10-23T06:14:03;49.22;;;8.75;;
57441;SDS011;43284;47.042;15.498;2022-10-23T06:16:30;45.88;;;10.32;;
57441;SDS011;43284;47.042;15.498;2022-10-23T06:18:58;29.80;;;8.63;;
57441;SDS011;43284;47.042;15.498;2022-10-23T06:21:25;21.10;;;6.45;;
57441;SDS011;43284;47.042;15.498;2022-10-23T06:23:53;24.92;;;9.27;;
57441;SDS011;43284;47.042;15.498;2022-10-23T06:26:21;20.23;;;7.72;;
57441;SDS011;43284;47.042;15.498;2022-10-23T06:28:49;27.38;;;8.38;;
57441;SDS011;43284;47.042;15.498;2022-10-23T06:31:16;17.77;;;9.10;;
57441;SDS011;43284;47.042;15.498;2022-10-23T06:33:52;24.95;;;7.80;;
57441;SDS011;43284;47.042;15.498;2022-10-23T06:36:24;16.95;;;6.72;;
57441;SDS011;43284;47.042;15.498;2022-10-23T06:38:52;10.20;;;5.88;;
57441;SDS011;43284;47.042;15.498;2022-10-23T06:41:21;9.75;;;5.38;;
57441;SDS011;43284;47.042;15.498;2022-10-23T06:43:49;11.75;;;6.38;;
57441;SDS011;43284;47.042;15.498;2022-10-23T06:46:17;10.30;;;6.55;;
57441;SDS011;43284;47.042;15.498;2022-10-23T06:48:45;12.35;;;6.88;;
57441;SDS011;43284;47.042;15.498;2022-10-23T06:51:13;8.15;;;5.82;;
57441;SDS011;43284;47.042;15.498;2022-10-23T06:53:42;9.00;;;6.28;;
57441;SDS011;43284;47.042;15.498;2022-10-23T06:56:10;10.13;;;6.40;;
57441;SDS011;43284;47.042;15.498;2022-10-23T06:58:38;10.18;;;7.20;;
57441;SDS011;43284;47.042;15.498;2022-10-23T07:01:08;15.43;;;7.90;;
57441;SDS011;43284;47.042;15.498;2022-10-23T07:03:36;12.18;;;7.30;;
57441;SDS011;43284;47.042;15.498;2022-10-23T07:06:06;12.43;;;8.05;;
57441;SDS011;43284;47.042;15.498;2022-10-23T07:08:36;14.80;;;7.63;;
57441;SDS011;43284;47.042;15.498;2022-10-23T07:11:04;14.93;;;8.70;;
57441;SDS011;43284;47.042;15.498;2022-10-23T07:13:34;28.30;;;8.18;;
57441;SDS011;43284;47.042;15.498;2022-10-23T07:16:09;14.52;;;7.45;;
57441;SDS011;43284;47.042;15.498;2022-10-23T07:18:38;28.35;;;8.38;;
57441;SDS011;43284;47.042;15.498;2022-10-23T07:21:05;45.17;;;9.07;;
57441;SDS011;43284;47.042;15.498;2022-10-23T07:23:33;30.35;;;9.02;;
57441;SDS011;43284;47.042;15.498;2022-10-23T07:26:05;56.42;;;11.75;;
57441;SDS011;43284;47.042;15.498;2022-10-23T07:28:33;26.50;;;10.35;;
57441;SDS011;43284;47.042;15.498;2022-10-23T07:31:01;108.03;;;12.95;;
57441;SDS011;43284;47.042;15.498;2022-10-23T07:33:29;220.68;;;20.95;;
57441;SDS011;43284;47.042;15.498;2022-10-23T07:35:56;115.88;;;12.57;;
57441;SDS011;43284;47.042;15.498;2022-10-23T07:38:24;165.00;;;16.73;;
57441;SDS011;43284;47.042;15.498;2022-10-23T07:40:52;43.15;;;10.35;;
57441;SDS011;43284;47.042;15.498;2022-10-23T07:43:23;100.70;;;14.85;;
57441;SDS011;43284;47.042;15.498;2022-10-23T07:45:51;73.40;;;13.75;;
57441;SDS011;43284;47.042;15.498;2022-10-23T07:48:19;21.25;;;10.98;;
57441;SDS011;43284;47.042;15.498;2022-10-23T07:50:49;41.15;;;11.52;;
57441;SDS011;43284;47.042;15.498;2022-10-23T07:53:17;22.33;;;10.20;;
57441;SDS011;43284;47.042;15.498;2022-10-23T07:56:30;13.60;;;8.77;;
57441;SDS011;43284;47.042;15.498;2022-10-23T07:58:40;14.18;;;9.15;;
57441;SDS011;43284;47.042;15.498;2022-10-23T08:01:22;21.95;;;9.85;;
57441;SDS011;43284;47.042;15.498;2022-10-23T08:03:52;24.05;;;10.65;;
57441;SDS011;43284;47.042;15.498;2022-10-23T08:06:19;26.08;;;12.30;;
57441;SDS011;43284;47.042;15.498;2022-10-23T08:08:46;23.10;;;12.50;;
57441;SDS011;43284;47.042;15.498;2022-10-23T08:11:14;18.20;;;11.38;;
57441;SDS011;43284;47.042;15.498;2022-10-23T08:13:54;20.77;;;12.25;;
57441;SDS011;43284;47.042;15.498;2022-10-23T08:16:23;25.48;;;13.50;;
57441;SDS011;43284;47.042;15.498;2022-10-23T08:18:50;22.33;;;12.63;;
57441;SDS011;43284;47.042;15.498;2022-10-23T08:21:18;19.58;;;11.93;;
57441;SDS011;43284;47.042;15.498;2022-10-23T08:23:46;20.85;;;12.00;;
57441;SDS011;43284;47.042;15.498;2022-10-23T08:26:13;23.20;;;12.85;;
57441;SDS011;43284;47.042;15.498;2022-10-23T08:28:40;24.23;;;13.32;;
57441;SDS011;43284;47.042;15.498;2022-10-23T08:31:08;19.05;;;13.05;;
57441;SDS011;43284;47.042;15.498;2022-10-23T08:33:37;20.08;;;13.00;;
57441;SDS011;43284;47.042;15.498;2022-10-23T08:36:04;18.33;;;11.48;;
57441;SDS011;43284;47.042;15.498;2022-10-23T08:38:41;14.05;;;10.50;;
57441;SDS011;43284;47.042;15.498;2022-10-23T08:41:15;17.25;;;10.43;;
57441;SDS011;43284;47.042;15.498;2022-10-23T08:43:53;15.82;;;10.02;;
57441;SDS011;43284;47.042;15.498;2022-10-23T08:46:44;16.95;;;11.52;;
57441;SDS011;43284;47.042;15.498;2022-10-23T08:49:19;16.02;;;10.38;;
57441;SDS011;43284;47.042;15.498;2022-10-23T08:51:55;15.05;;;9.60;;
57441;SDS011;43284;47.042;15.498;2022-10-23T08:57:10;16.90;;;10.60;;
57441;SDS011;43284;47.042;15.498;2022-10-23T08:59:47;16.73;;;10.82;;
57441;SDS011;43284;47.042;15.498;2022-10-23T09:05:18;16.80;;;11.68;;
57441;SDS011;43284;47.042;15.498;2022-10-23T09:07:57;17.98;;;10.82;;
57441;SDS011;43284;47.042;15.498;2022-10-23T09:13:59;15.60;;;8.95;;
57441;SDS011;43284;47.042;15.498;2022-10-23T09:19:16;11.35;;;8.98;;
57441;SDS011;43284;47.042;15.498;2022-10-23T09:21:46;11.32;;;7.70;;
57441;SDS011;43284;47.042;15.498;2022-10-23T09:24:16;11.35;;;6.57;;
57441;SDS011;43284;47.042;15.498;2022-10-23T09:26:45;10.18;;;7.63;;
57441;SDS011;43284;47.042;15.498;2022-10-23T09:29:24;8.82;;;6.55;;
57441;SDS011;43284;47.042;15.498;2022-10-23T09:32:02;9.05;;;6.68;;
57441;SDS011;43284;47.042;15.498;2022-10-23T09:34:32;8.55;;;6.32;;
57441;SDS011;43284;47.042;15.498;2022-10-23T09:39:33;8.63;;;6.22;;
57441;SDS011;43284;47.042;15.498;2022-10-23T09:42:13;9.20;;;6.93;;
57441;SDS011;43284;47.042;15.498;2022-10-23T09:44:53;17.88;;;7.57;;
57441;SDS011;43284;47.042;15.498;2022-10-23T09:47:21;10.50;;;7.53;;
57441;SDS011;43284;47.042;15.498;2022-10-23T09:49:54;13.20;;;8.35;;
57441;SDS011;43284;47.042;15.498;2022-10-23T09:52:27;10.32;;;6.38;;
57441;SDS011;43284;47.042;15.498;2022-10-23T09:55:01;10.50;;;6.82;;
57441;SDS011;43284;47.042;15.498;2022-10-23T09:57:45;9.23;;;5.97;;
57441;SDS011;43284;47.042;15.498;2022-10-23T10:02:53;10.93;;;6.45;;
57441;SDS011;43284;47.042;15.498;2022-10-23T10:05:34;9.32;;;6.20;;
57441;SDS011;43284;47.042;15.498;2022-10-23T10:08:24;11.93;;;8.35;;
57441;SDS011;43284;47.042;15.498;2022-10-23T10:13:59;13.68;;;7.53;;
57441;SDS011;43284;47.042;15.498;2022-10-23T10:22:46;8.88;;;5.05;;
57441;SDS011;43284;47.042;15.498;2022-10-23T10:31:21;9.25;;;5.13;;
57441;SDS011;43284;47.042;15.498;2022-10-23T10:36:56;9.00;;;5.68;;
57441;SDS011;43284;47.042;15.498;2022-10-23T10:39:37;8.52;;;5.70;;
57441;SDS011;43284;47.042;15.498;2022-10-23T10:42:28;7.47;;;5.63;;
57441;SDS011;43284;47.042;15.498;2022-10-23T10:45:25;6.32;;;4.68;;
57441;SDS011;43284;47.042;15.498;2022-10-23T10:51:10;5.20;;;3.92;;
57441;SDS011;43284;47.042;15.498;2022-10-23T10:54:06;7.82;;;4.13;;
57441;SDS011;43284;47.042;15.498;2022-10-23T10:56:42;7.77;;;3.60;;
57441;SDS011;43284;47.042;15.498;2022-10-23T10:59:22;5.97;;;3.50;;
57441;SDS011;43284;47.042;15.498;2022-10-23T11:07:36;4.05;;;3.65;;
57441;SDS011;43284;47.042;15.498;2022-10-23T11:10:26;5.30;;;3.72;;
57441;SDS011;43284;47.042;15.498;2022-10-23T11:12:54;3.85;;;3.33;;
57441;SDS011;43284;47.042;15.498;2022-10-23T11:15:34;8.00;;;3.95;;
57441;SDS011;43284;47.042;15.498;2022-10-23T11:18:11;5.05;;;3.38;;
57441;SDS011;43284;47.042;15.498;2022-10-23T11:20:57;5.35;;;3.50;;
57441;SDS011;43284;47.042;15.498;2022-10-23T11:26:40;4.10;;;3.47;;
57441;SDS011;43284;47.042;15.498;2022-10-23T11:32:32;4.85;;;3.38;;
57441;SDS011;43284;47.042;15.498;2022-10-23T11:37:56;4.22;;;3.13;;
57441;SDS011;43284;47.042;15.498;2022-10-23T11:40:45;3.00;;;2.70;;
57441;SDS011;43284;47.042;15.498;2022-10-23T11:43:30;3.70;;;2.85;;
57441;SDS011;43284;47.042;15.498;2022-10-23T11:48:50;3.97;;;2.60;;
57441;SDS011;43284;47.042;15.498;2022-10-23T11:51:35;5.00;;;2.70;;
57441;SDS011;43284;47.042;15.498;2022-10-23T12:02:28;3.72;;;2.20;;
57441;SDS011;43284;47.042;15.498;2022-10-23T12:05:04;4.50;;;1.90;;
57441;SDS011;43284;47.042;15.498;2022-10-23T12:07:36;3.88;;;1.80;;
57441;SDS011;43284;47.042;15.498;2022-10-23T12:13:28;4.10;;;1.50;;
57441;SDS011;43284;47.042;15.498;2022-10-23T12:15:56;3.13;;;1.90;;
57441;SDS011;43284;47.042;15.498;2022-10-23T12:18:23;2.92;;;1.35;;
57441;SDS011;43284;47.042;15.498;2022-10-23T12:20:56;2.83;;;1.73;;
57441;SDS011;43284;47.042;15.498;2022-10-23T12:26:38;6.38;;;1.77;;
57441;SDS011;43284;47.042;15.498;2022-10-23T12:29:29;2.47;;;1.80;;
57441;SDS011;43284;47.042;15.498;2022-10-23T12:40:20;2.83;;;1.90;;
57441;SDS011;43284;47.042;15.498;2022-10-23T12:42:56;2.85;;;1.98;;
57441;SDS011;43284;47.042;15.498;2022-10-23T12:45:26;6.57;;;2.10;;
57441;SDS011;43284;47.042;15.498;2022-10-23T12:48:03;3.55;;;2.05;;
57441;SDS011;43284;47.042;15.498;2022-10-23T12:50:31;5.65;;;1.73;;
57441;SDS011;43284;47.042;15.498;2022-10-23T12:53:00;3.00;;;1.98;;
57441;SDS011;43284;47.042;15.498;2022-10-23T12:55:50;2.65;;;1.92;;
57441;SDS011;43284;47.042;15.498;2022-10-23T12:58:24;4.60;;;1.45;;
57441;SDS011;43284;47.042;15.498;2022-10-23T13:00:57;3.40;;;1.85;;
57441;SDS011;43284;47.042;15.498;2022-10-23T13:03:27;3.50;;;1.50;;
57441;SDS011;43284;47.042;15.498;2022-10-23T13:05:57;5.28;;;1.33;;
57441;SDS011;43284;47.042;15.498;2022-10-23T13:08:36;2.58;;;1.40;;
57441;SDS011;43284;47.042;15.498;2022-10-23T13:11:13;4.45;;;1.70;;
57441;SDS011;43284;47.042;15.498;2022-10-23T13:13:44;1.98;;;1.38;;
57441;SDS011;43284;47.042;15.498;2022-10-23T13:16:21;2.65;;;1.40;;
57441;SDS011;43284;47.042;15.498;2022-10-23T13:18:50;1.35;;;1.13;;
57441;SDS011;43284;47.042;15.498;2022-10-23T13:21:22;4.40;;;1.63;;
57441;SDS011;43284;47.042;15.498;2022-10-23T13:23:52;8.10;;;1.73;;
57441;SDS011;43284;47.042;15.498;2022-10-23T13:28:50;2.47;;;1.52;;
57441;SDS011;43284;47.042;15.498;2022-10-23T13:31:23;3.58;;;1.50;;
57441;SDS011;43284;47.042;15.498;2022-10-23T13:39:00;4.35;;;1.90;;
57441;SDS011;43284;47.042;15.498;2022-10-23T13:41:35;3.83;;;1.80;;
57441;SDS011;43284;47.042;15.498;2022-10-23T13:44:08;3.30;;;1.90;;
57441;SDS011;43284;47.042;15.498;2022-10-23T13:46:40;4.07;;;1.88;;
57441;SDS011;43284;47.042;15.498;2022-10-23T13:49:09;2.70;;;1.90;;
57441;SDS011;43284;47.042;15.498;2022-10-23T13:51:38;2.80;;;1.52;;
57441;SDS011;43284;47.042;15.498;2022-10-23T13:54:19;2.67;;;1.50;;
57441;SDS011;43284;47.042;15.498;2022-10-23T13:56:49;5.75;;;1.90;;
57441;SDS011;43284;47.042;15.498;2022-10-23T13:59:18;4.00;;;2.17;;
57441;SDS011;43284;47.042;15.498;2022-10-23T14:01:46;3.72;;;1.73;;
57441;SDS011;43284;47.042;15.498;2022-10-23T14:04:15;5.28;;;1.98;;
57441;SDS011;43284;47.042;15.498;2022-10-23T14:06:43;2.80;;;2.05;;
57441;SDS011;43284;47.042;15.498;2022-10-23T14:09:11;4.35;;;1.77;;
57441;SDS011;43284;47.042;15.498;2022-10-23T14:11:40;6.90;;;2.00;;
57441;SDS011;43284;47.042;15.498;2022-10-23T14:14:09;2.55;;;1.65;;
57441;SDS011;43284;47.042;15.498;2022-10-23T14:16:36;13.82;;;2.20;;
57441;SDS011;43284;47.042;15.498;2022-10-23T14:19:03;6.57;;;1.90;;
57441;SDS011;43284;47.042;15.498;2022-10-23T14:21:31;4.47;;;1.88;;
57441;SDS011;43284;47.042;15.498;2022-10-23T14:23:58;2.60;;;1.75;;
57441;SDS011;43284;47.042;15.498;2022-10-23T14:26:26;3.47;;;1.77;;
57441;SDS011;43284;47.042;15.498;2022-10-23T14:28:55;5.15;;;1.98;;
57441;SDS011;43284;47.042;15.498;2022-10-23T14:31:24;2.65;;;1.90;;
57441;SDS011;43284;47.042;15.498;2022-10-23T14:33:55;4.60;;;2.30;;
57441;SDS011;43284;47.042;15.498;2022-10-23T14:36:25;8.40;;;1.95;;
57441;SDS011;43284;47.042;15.498;2022-10-23T14:38:55;5.10;;;2.00;;
57441;SDS011;43284;47.042;15.498;2022-10-23T14:41:24;4.25;;;2.00;;
57441;SDS011;43284;47.042;15.498;2022-10-23T14:43:52;5.53;;;1.80;;
57441;SDS011;43284;47.042;15.498;2022-10-23T14:46:21;3.42;;;2.10;;
57441;SDS011;43284;47.042;15.498;2022-10-23T14:48:50;6.88;;;2.45;;
57441;SDS011;43284;47.042;15.498;2022-10-23T14:51:26;7.00;;;2.42;;
57441;SDS011;43284;47.042;15.498;2022-10-23T14:54:05;12.73;;;2.60;;
57441;SDS011;43284;47.042;15.498;2022-10-23T14:56:35;8.95;;;2.22;;
57441;SDS011;43284;47.042;15.498;2022-10-23T14:59:06;8.13;;;2.20;;
57441;SDS011;43284;47.042;15.498;2022-10-23T15:01:40;5.22;;;1.95;;
57441;SDS011;43284;47.042;15.498;2022-10-23T15:04:09;12.15;;;2.97;;
57441;SDS011;43284;47.042;15.498;2022-10-23T15:06:36;5.05;;;2.35;;
57441;SDS011;43284;47.042;15.498;2022-10-23T15:09:04;3.83;;;1.60;;
57441;SDS011;43284;47.042;15.498;2022-10-23T15:11:31;8.55;;;2.35;;
57441;SDS011;43284;47.042;15.498;2022-10-23T15:13:59;4.68;;;2.40;;
57441;SDS011;43284;47.042;15.498;2022-10-23T15:16:27;4.88;;;2.05;;
57441;SDS011;43284;47.042;15.498;2022-10-23T15:18:54;3.83;;;2.15;;
57441;SDS011;43284;47.042;15.498;2022-10-23T15:21:22;11.07;;;2.10;;
57441;SDS011;43284;47.042;15.498;2022-10-23T15:23:49;10.88;;;2.17;;
57441;SDS011;43284;47.042;15.498;2022-10-23T15:26:18;11.70;;;2.50;;
57441;SDS011;43284;47.042;15.498;2022-10-23T15:28:57;8.35;;;1.90;;
57441;SDS011;43284;47.042;15.498;2022-10-23T15:34:13;19.23;;;2.75;;
57441;SDS011;43284;47.042;15.498;2022-10-23T15:36:43;5.47;;;1.98;;
57441;SDS011;43284;47.042;15.498;2022-10-23T15:39:12;14.20;;;2.08;;
57441;SDS011;43284;47.042;15.498;2022-10-23T15:41:46;7.63;;;2.20;;
57441;SDS011;43284;47.042;15.498;2022-10-23T15:44:16;10.02;;;2.53;;
57441;SDS011;43284;47.042;15.498;2022-10-23T15:46:45;5.68;;;2.50;;
57441;SDS011;43284;47.042;15.498;2022-10-23T15:49:14;8.30;;;2.13;;
57441;SDS011;43284;47.042;15.498;2022-10-23T15:51:42;8.82;;;2.65;;
57441;SDS011;43284;47.042;15.498;2022-10-23T15:54:14;16.67;;;2.25;;
57441;SDS011;43284;47.042;15.498;2022-10-23T15:56:45;9.38;;;3.30;;
57441;SDS011;43284;47.042;15.498;2022-10-23T15:59:14;5.07;;;2.65;;
57441;SDS011;43284;47.042;15.498;2022-10-23T16:01:43;4.13;;;2.47;;
57441;SDS011;43284;47.042;15.498;2022-10-23T16:04:10;8.05;;;2.80;;
57441;SDS011;43284;47.042;15.498;2022-10-23T16:06:38;13.93;;;2.95;;
57441;SDS011;43284;47.042;15.498;2022-10-23T16:09:06;6.78;;;2.58;;
57441;SDS011;43284;47.042;15.498;2022-10-23T16:11:35;12.80;;;2.92;;
57441;SDS011;43284;47.042;15.498;2022-10-23T16:14:04;8.70;;;2.92;;
57441;SDS011;43284;47.042;15.498;2022-10-23T16:16:33;13.68;;;2.97;;
57441;SDS011;43284;47.042;15.498;2022-10-23T16:19:01;10.35;;;3.00;;
57441;SDS011;43284;47.042;15.498;2022-10-23T16:21:34;25.40;;;11.82;;
57441;SDS011;43284;47.042;15.498;2022-10-23T16:24:04;12.48;;;3.33;;
57441;SDS011;43284;47.042;15.498;2022-10-23T16:26:33;7.53;;;3.45;;
57441;SDS011;43284;47.042;15.498;2022-10-23T16:29:03;9.57;;;2.53;;
57441;SDS011;43284;47.042;15.498;2022-10-23T16:31:32;6.18;;;2.83;;
57441;SDS011;43284;47.042;15.498;2022-10-23T16:34:01;8.65;;;2.28;;
57441;SDS011;43284;47.042;15.498;2022-10-23T16:36:30;9.48;;;2.78;;
57441;SDS011;43284;47.042;15.498;2022-10-23T16:39:00;8.15;;;2.88;;
57441;SDS011;43284;47.042;15.498;2022-10-23T16:41:29;9.85;;;2.88;;
57441;SDS011;43284;47.042;15.498;2022-10-23T16:43:57;12.98;;;2.85;;